sensor_id;sensor_type;location;lat;lon;timestamp;pressure;altitude;pressure_sealevel;temperature;humidity
53715;BME280;39608;55.630;37.864;2023-09-07T00:00:15;99896.34;;;11.90;52.53
53715;BME280;39608;55.630;37.864;2023-09-07T00:05:17;99903.47;;;11.86;52.99
53715;BME280;39608;55.630;37.864;2023-09-07T00:10:21;99910.00;;;11.85;53.45
53715;BME280;39608;55.630;37.864;2023-09-07T00:15:23;99897.97;;;11.72;53.71
53715;BME280;39608;55.630;37.864;2023-09-07T00:20:27;99911.31;;;11.68;54.32
53715;BME280;39608;55.630;37.864;2023-09-07T00:25:31;99907.06;;;11.62;54.63
53715;BME280;39608;55.630;37.864;2023-09-07T00:30:33;99879.50;;;11.30;54.89
53715;BME280;39608;55.630;37.864;2023-09-07T00:35:35;99928.41;;;11.50;54.86
53715;BME280;39608;55.630;37.864;2023-09-07T00:40:42;99917.06;;;11.42;55.02
53715;BME280;39608;55.630;37.864;2023-09-07T00:45:44;99922.47;;;11.47;55.19
53715;BME280;39608;55.630;37.864;2023-09-07T00:50:46;99931.69;;;11.46;55.71
53715;BME280;39608;55.630;37.864;2023-09-07T00:55:50;99933.50;;;11.32;56.09
53715;BME280;39608;55.630;37.864;2023-09-07T01:00:52;99952.69;;;11.41;56.32
53715;BME280;39608;55.630;37.864;2023-09-07T01:06:00;99940.53;;;11.33;56.63
53715;BME280;39608;55.630;37.864;2023-09-07T01:11:13;99946.38;;;11.21;56.55
53715;BME280;39608;55.630;37.864;2023-09-07T01:16:16;99944.25;;;11.18;56.92
53715;BME280;39608;55.630;37.864;2023-09-07T01:21:19;99963.28;;;11.37;56.83
53715;BME280;39608;55.630;37.864;2023-09-07T01:26:22;99948.75;;;11.28;56.87
53715;BME280;39608;55.630;37.864;2023-09-07T01:31:24;99961.91;;;11.16;57.41
53715;BME280;39608;55.630;37.864;2023-09-07T01:36:26;99930.91;;;10.92;58.01
53715;BME280;39608;55.630;37.864;2023-09-07T01:41:31;99967.91;;;11.12;58.08
53715;BME280;39608;55.630;37.864;2023-09-07T01:46:34;99972.06;;;11.05;58.51
53715;BME280;39608;55.630;37.864;2023-09-07T01:51:36;99971.00;;;11.01;58.85
53715;BME280;39608;55.630;37.864;2023-09-07T01:56:39;99972.88;;;11.05;58.39
53715;BME280;39608;55.630;37.864;2023-09-07T02:01:42;99985.16;;;10.98;59.52
53715;BME280;39608;55.630;37.864;2023-09-07T02:06:45;99983.94;;;10.79;59.73
53715;BME280;39608;55.630;37.864;2023-09-07T02:11:48;99990.22;;;10.80;60.29
53715;BME280;39608;55.630;37.864;2023-09-07T02:16:50;99982.41;;;10.68;60.32
53715;BME280;39608;55.630;37.864;2023-09-07T02:21:52;99987.66;;;10.59;60.80
53715;BME280;39608;55.630;37.864;2023-09-07T02:26:58;99983.88;;;10.55;60.88
53715;BME280;39608;55.630;37.864;2023-09-07T02:32:00;99997.94;;;10.63;61.03
53715;BME280;39608;55.630;37.864;2023-09-07T02:37:03;99986.69;;;10.45;61.44
53715;BME280;39608;55.630;37.864;2023-09-07T02:42:07;99989.66;;;10.43;61.32
53715;BME280;39608;55.630;37.864;2023-09-07T02:47:12;100008.03;;;10.52;61.50
53715;BME280;39608;55.630;37.864;2023-09-07T02:52:14;100020.81;;;10.46;61.83
53715;BME280;39608;55.630;37.864;2023-09-07T02:57:17;100015.66;;;10.50;61.35
53715;BME280;39608;55.630;37.864;2023-09-07T03:02:19;100020.63;;;10.37;61.90
53715;BME280;39608;55.630;37.864;2023-09-07T03:07:24;100037.41;;;10.39;62.60
53715;BME280;39608;55.630;37.864;2023-09-07T03:12:28;100036.84;;;10.42;61.67
53715;BME280;39608;55.630;37.864;2023-09-07T03:17:30;100039.88;;;10.36;62.39
53715;BME280;39608;55.630;37.864;2023-09-07T03:22:32;100053.13;;;10.32;62.40
53715;BME280;39608;55.630;37.864;2023-09-07T03:27:36;100041.22;;;10.28;62.64
53715;BME280;39608;55.630;37.864;2023-09-07T03:32:38;100057.75;;;10.32;62.51
53715;BME280;39608;55.630;37.864;2023-09-07T03:37:42;100041.78;;;10.25;62.89
53715;BME280;39608;55.630;37.864;2023-09-07T03:42:45;100062.34;;;10.41;62.59
53715;BME280;39608;55.630;37.864;2023-09-07T03:47:48;100067.50;;;10.38;62.44
53715;BME280;39608;55.630;37.864;2023-09-07T03:52:50;100065.03;;;10.47;62.51
53715;BME280;39608;55.630;37.864;2023-09-07T03:57:53;100076.13;;;10.50;62.48
53715;BME280;39608;55.630;37.864;2023-09-07T04:02:56;100083.16;;;10.56;62.26
53715;BME280;39608;55.630;37.864;2023-09-07T04:07:58;100085.28;;;10.59;62.25
53715;BME280;39608;55.630;37.864;2023-09-07T04:13:02;100090.94;;;10.68;62.58
53715;BME280;39608;55.630;37.864;2023-09-07T04:18:04;100080.94;;;10.64;62.04
53715;BME280;39608;55.630;37.864;2023-09-07T04:23:07;100084.69;;;10.68;61.82
53715;BME280;39608;55.630;37.864;2023-09-07T04:28:11;100104.16;;;10.80;61.55
53715;BME280;39608;55.630;37.864;2023-09-07T04:33:13;100102.72;;;10.88;61.50
53715;BME280;39608;55.630;37.864;2023-09-07T04:38:15;100115.91;;;11.05;61.17
53715;BME280;39608;55.630;37.864;2023-09-07T04:43:18;100124.00;;;11.15;60.99
53715;BME280;39608;55.630;37.864;2023-09-07T04:48:23;100112.78;;;11.22;60.83
53715;BME280;39608;55.630;37.864;2023-09-07T04:53:27;100146.00;;;11.43;60.39
53715;BME280;39608;55.630;37.864;2023-09-07T04:58:31;100142.53;;;11.67;60.71
53715;BME280;39608;55.630;37.864;2023-09-07T05:03:33;100130.13;;;12.57;58.90
53715;BME280;39608;55.630;37.864;2023-09-07T05:08:35;100122.84;;;13.43;57.56
53715;BME280;39608;55.630;37.864;2023-09-07T05:13:40;100145.88;;;14.25;55.79
53715;BME280;39608;55.630;37.864;2023-09-07T05:18:42;100149.72;;;14.88;54.83
53715;BME280;39608;55.630;37.864;2023-09-07T05:23:44;100120.88;;;15.96;51.70
53715;BME280;39608;55.630;37.864;2023-09-07T05:28:48;100144.09;;;16.73;49.10
53715;BME280;39608;55.630;37.864;2023-09-07T05:33:50;100144.13;;;17.82;47.34
53715;BME280;39608;55.630;37.864;2023-09-07T05:38:52;100139.50;;;18.72;45.38
53715;BME280;39608;55.630;37.864;2023-09-07T05:43:56;100139.41;;;19.90;43.06
53715;BME280;39608;55.630;37.864;2023-09-07T05:49:00;100130.91;;;20.32;41.59
53715;BME280;39608;55.630;37.864;2023-09-07T05:54:03;100100.94;;;20.96;39.99
53715;BME280;39608;55.630;37.864;2023-09-07T05:59:07;100135.38;;;21.02;38.71
53715;BME280;39608;55.630;37.864;2023-09-07T06:04:09;100142.69;;;21.67;37.00
53715;BME280;39608;55.630;37.864;2023-09-07T06:09:12;100136.28;;;21.79;36.69
53715;BME280;39608;55.630;37.864;2023-09-07T06:14:16;100166.66;;;22.27;35.50
53715;BME280;39608;55.630;37.864;2023-09-07T06:19:18;100161.47;;;21.05;37.04
53715;BME280;39608;55.630;37.864;2023-09-07T06:24:20;100134.38;;;21.23;36.32
53715;BME280;39608;55.630;37.864;2023-09-07T06:29:26;100167.03;;;22.42;34.88
53715;BME280;39608;55.630;37.864;2023-09-07T06:34:29;100163.75;;;20.38;36.76
53715;BME280;39608;55.630;37.864;2023-09-07T06:39:32;100167.72;;;17.83;40.71
53715;BME280;39608;55.630;37.864;2023-09-07T06:44:37;100153.88;;;16.57;42.76
53715;BME280;39608;55.630;37.864;2023-09-07T06:49:50;100178.34;;;16.04;43.62
53715;BME280;39608;55.630;37.864;2023-09-07T06:55:21;100190.84;;;15.88;44.23
53715;BME280;39608;55.630;37.864;2023-09-07T07:00:37;100195.69;;;15.46;45.65
53715;BME280;39608;55.630;37.864;2023-09-07T07:05:48;100190.41;;;15.27;45.47
53715;BME280;39608;55.630;37.864;2023-09-07T07:10:50;100177.16;;;14.97;46.21
53715;BME280;39608;55.630;37.864;2023-09-07T07:15:55;100199.31;;;14.96;45.89
53715;BME280;39608;55.630;37.864;2023-09-07T07:20:57;100194.19;;;14.80;46.18
53715;BME280;39608;55.630;37.864;2023-09-07T07:25:59;100194.06;;;14.85;46.04
53715;BME280;39608;55.630;37.864;2023-09-07T07:31:08;100192.41;;;14.98;45.66
53715;BME280;39608;55.630;37.864;2023-09-07T07:36:10;100196.50;;;15.46;45.33
53715;BME280;39608;55.630;37.864;2023-09-07T07:41:12;100216.38;;;15.83;44.93
53715;BME280;39608;55.630;37.864;2023-09-07T07:46:23;100206.47;;;15.73;44.70
53715;BME280;39608;55.630;37.864;2023-09-07T07:51:25;100190.06;;;17.38;42.46
53715;BME280;39608;55.630;37.864;2023-09-07T07:56:27;100199.06;;;22.62;34.20
53715;BME280;39608;55.630;37.864;2023-09-07T08:01:33;100182.84;;;26.66;28.75
53715;BME280;39608;55.630;37.864;2023-09-07T08:06:37;100187.69;;;28.73;24.45
53715;BME280;39608;55.630;37.864;2023-09-07T08:11:39;100193.03;;;29.38;23.07
53715;BME280;39608;55.630;37.864;2023-09-07T08:16:43;100192.47;;;28.58;23.27
53715;BME280;39608;55.630;37.864;2023-09-07T08:21:50;100178.25;;;26.92;25.35
53715;BME280;39608;55.630;37.864;2023-09-07T08:26:52;100189.38;;;25.88;25.70
53715;BME280;39608;55.630;37.864;2023-09-07T08:32:02;100193.00;;;25.20;26.88
53715;BME280;39608;55.630;37.864;2023-09-07T08:37:05;100191.66;;;27.78;23.04
53715;BME280;39608;55.630;37.864;2023-09-07T08:42:12;100193.44;;;29.36;21.97
53715;BME280;39608;55.630;37.864;2023-09-07T08:47:22;100174.47;;;28.95;22.27
53715;BME280;39608;55.630;37.864;2023-09-07T08:52:28;100182.09;;;28.58;21.81
53715;BME280;39608;55.630;37.864;2023-09-07T08:57:30;100188.09;;;25.40;24.93
53715;BME280;39608;55.630;37.864;2023-09-07T09:02:34;100180.09;;;27.69;22.58
53715;BME280;39608;55.630;37.864;2023-09-07T09:07:37;100173.75;;;28.44;21.31
53715;BME280;39608;55.630;37.864;2023-09-07T09:12:57;100182.03;;;26.58;23.64
53715;BME280;39608;55.630;37.864;2023-09-07T09:18:12;100150.13;;;27.26;22.79
53715;BME280;39608;55.630;37.864;2023-09-07T09:23:31;100179.66;;;27.48;22.20
53715;BME280;39608;55.630;37.864;2023-09-07T09:28:34;100159.22;;;27.08;21.99
53715;BME280;39608;55.630;37.864;2023-09-07T09:33:48;100196.06;;;27.90;21.84
53715;BME280;39608;55.630;37.864;2023-09-07T09:38:52;100166.72;;;25.44;23.54
53715;BME280;39608;55.630;37.864;2023-09-07T09:43:55;100172.06;;;22.91;26.24
53715;BME280;39608;55.630;37.864;2023-09-07T09:49:03;100177.63;;;23.30;26.49
53715;BME280;39608;55.630;37.864;2023-09-07T09:54:06;100196.03;;;28.91;20.54
53715;BME280;39608;55.630;37.864;2023-09-07T09:59:10;100165.69;;;25.26;23.13
53715;BME280;39608;55.630;37.864;2023-09-07T10:04:24;100185.31;;;26.71;22.82
53715;BME280;39608;55.630;37.864;2023-09-07T10:09:32;100166.50;;;32.13;18.29
53715;BME280;39608;55.630;37.864;2023-09-07T10:14:43;100172.19;;;34.65;16.46
53715;BME280;39608;55.630;37.864;2023-09-07T10:20:05;100160.97;;;31.54;18.05
53715;BME280;39608;55.630;37.864;2023-09-07T10:25:35;100140.91;;;27.04;21.92
53715;BME280;39608;55.630;37.864;2023-09-07T10:31:05;100180.13;;;28.55;20.45
53715;BME280;39608;55.630;37.864;2023-09-07T10:36:21;100172.19;;;32.97;17.59
53715;BME280;39608;55.630;37.864;2023-09-07T10:41:23;100162.13;;;33.89;15.52
53715;BME280;39608;55.630;37.864;2023-09-07T10:46:25;100168.41;;;29.81;18.42
53715;BME280;39608;55.630;37.864;2023-09-07T10:51:29;100162.81;;;30.72;18.81
53715;BME280;39608;55.630;37.864;2023-09-07T10:56:31;100153.91;;;30.81;18.20
53715;BME280;39608;55.630;37.864;2023-09-07T11:01:33;100176.81;;;32.87;16.37
53715;BME280;39608;55.630;37.864;2023-09-07T11:06:38;100172.94;;;34.53;15.28
53715;BME280;39608;55.630;37.864;2023-09-07T11:11:46;100156.25;;;30.51;18.48
53715;BME280;39608;55.630;37.864;2023-09-07T11:16:49;100152.22;;;28.51;20.02
53715;BME280;39608;55.630;37.864;2023-09-07T11:21:58;100164.38;;;26.36;21.91
53715;BME280;39608;55.630;37.864;2023-09-07T11:27:00;100154.47;;;22.99;25.28
53715;BME280;39608;55.630;37.864;2023-09-07T11:32:06;100144.75;;;21.70;26.96
53715;BME280;39608;55.630;37.864;2023-09-07T11:37:10;100146.31;;;20.99;28.05
53715;BME280;39608;55.630;37.864;2023-09-07T11:42:12;100129.44;;;21.00;28.70
53715;BME280;39608;55.630;37.864;2023-09-07T11:47:14;100125.09;;;26.45;22.47
53715;BME280;39608;55.630;37.864;2023-09-07T11:52:18;100158.31;;;30.47;18.83
53715;BME280;39608;55.630;37.864;2023-09-07T11:57:20;100152.72;;;32.86;17.09
53715;BME280;39608;55.630;37.864;2023-09-07T12:07:55;100146.25;;;36.95;14.46
53715;BME280;39608;55.630;37.864;2023-09-07T12:18:50;100144.25;;;37.05;13.24
53715;BME280;39608;55.630;37.864;2023-09-07T12:23:53;100145.13;;;34.09;14.95
53715;BME280;39608;55.630;37.864;2023-09-07T12:28:55;100143.00;;;33.47;15.24
53715;BME280;39608;55.630;37.864;2023-09-07T12:33:57;100135.69;;;31.85;16.34
53715;BME280;39608;55.630;37.864;2023-09-07T12:39:01;100111.13;;;31.11;16.78
53715;BME280;39608;55.630;37.864;2023-09-07T12:44:06;100127.13;;;31.69;15.97
53715;BME280;39608;55.630;37.864;2023-09-07T12:49:08;100136.50;;;29.75;17.24
53715;BME280;39608;55.630;37.864;2023-09-07T12:54:11;100125.03;;;28.84;17.94
53715;BME280;39608;55.630;37.864;2023-09-07T12:59:13;100132.59;;;28.88;17.11
53715;BME280;39608;55.630;37.864;2023-09-07T13:04:15;100128.28;;;25.91;19.96
53715;BME280;39608;55.630;37.864;2023-09-07T13:09:19;100122.97;;;26.24;20.57
53715;BME280;39608;55.630;37.864;2023-09-07T13:14:24;100140.22;;;28.80;18.14
53715;BME280;39608;55.630;37.864;2023-09-07T13:19:37;100098.78;;;28.57;18.32
53715;BME280;39608;55.630;37.864;2023-09-07T13:25:00;100117.19;;;28.43;17.99
53715;BME280;39608;55.630;37.864;2023-09-07T13:30:05;100103.16;;;27.13;19.29
53715;BME280;39608;55.630;37.864;2023-09-07T13:35:08;100101.16;;;28.73;18.56
53715;BME280;39608;55.630;37.864;2023-09-07T13:40:12;100098.91;;;29.27;17.83
53715;BME280;39608;55.630;37.864;2023-09-07T13:45:15;100112.31;;;29.50;17.82
53715;BME280;39608;55.630;37.864;2023-09-07T13:50:17;100095.50;;;28.87;18.33
53715;BME280;39608;55.630;37.864;2023-09-07T13:55:21;100109.22;;;28.31;18.63
53715;BME280;39608;55.630;37.864;2023-09-07T14:00:24;100098.31;;;26.19;20.83
53715;BME280;39608;55.630;37.864;2023-09-07T14:05:26;100080.88;;;24.60;22.37
53715;BME280;39608;55.630;37.864;2023-09-07T14:10:30;100095.53;;;22.24;25.16
53715;BME280;39608;55.630;37.864;2023-09-07T14:15:32;100076.69;;;21.62;25.41
53715;BME280;39608;55.630;37.864;2023-09-07T14:20:35;100089.34;;;20.50;27.39
53715;BME280;39608;55.630;37.864;2023-09-07T14:25:38;100066.53;;;21.50;26.22
53715;BME280;39608;55.630;37.864;2023-09-07T14:30:42;100071.25;;;23.08;24.54
53715;BME280;39608;55.630;37.864;2023-09-07T14:35:44;100076.41;;;23.29;24.55
53715;BME280;39608;55.630;37.864;2023-09-07T14:40:51;100077.31;;;23.60;24.12
53715;BME280;39608;55.630;37.864;2023-09-07T14:45:55;100073.06;;;23.00;24.87
53715;BME280;39608;55.630;37.864;2023-09-07T14:50:58;100075.50;;;22.82;25.29
53715;BME280;39608;55.630;37.864;2023-09-07T14:56:02;100084.44;;;23.57;24.70
53715;BME280;39608;55.630;37.864;2023-09-07T15:01:05;100079.13;;;24.22;23.84
53715;BME280;39608;55.630;37.864;2023-09-07T15:06:08;100070.88;;;23.99;24.04
53715;BME280;39608;55.630;37.864;2023-09-07T15:11:13;100057.28;;;23.20;25.29
53715;BME280;39608;55.630;37.864;2023-09-07T15:16:15;100060.53;;;22.12;26.35
53715;BME280;39608;55.630;37.864;2023-09-07T15:21:17;100076.56;;;21.27;27.46
53715;BME280;39608;55.630;37.864;2023-09-07T15:26:21;100044.88;;;19.98;28.96
53715;BME280;39608;55.630;37.864;2023-09-07T15:31:23;100087.03;;;19.53;29.79
53715;BME280;39608;55.630;37.864;2023-09-07T15:36:25;100088.25;;;18.97;30.35
53715;BME280;39608;55.630;37.864;2023-09-07T15:41:33;100089.19;;;18.59;30.38
53715;BME280;39608;55.630;37.864;2023-09-07T15:46:38;100088.63;;;17.85;30.95
53715;BME280;39608;55.630;37.864;2023-09-07T15:51:40;100083.97;;;17.30;31.64
53715;BME280;39608;55.630;37.864;2023-09-07T15:56:44;100083.19;;;16.94;32.38
53715;BME280;39608;55.630;37.864;2023-09-07T16:01:47;100081.72;;;16.62;32.99
53715;BME280;39608;55.630;37.864;2023-09-07T16:06:50;100086.03;;;16.36;33.87
53715;BME280;39608;55.630;37.864;2023-09-07T16:11:53;100076.53;;;16.16;34.26
53715;BME280;39608;55.630;37.864;2023-09-07T16:16:56;100084.50;;;15.95;34.84
53715;BME280;39608;55.630;37.864;2023-09-07T16:21:59;100082.69;;;15.82;35.23
53715;BME280;39608;55.630;37.864;2023-09-07T16:27:08;100089.72;;;15.74;35.73
53715;BME280;39608;55.630;37.864;2023-09-07T16:32:10;100063.31;;;15.38;35.96
53715;BME280;39608;55.630;37.864;2023-09-07T16:37:12;100083.75;;;15.40;36.28
53715;BME280;39608;55.630;37.864;2023-09-07T16:42:17;100091.41;;;15.30;36.29
53715;BME280;39608;55.630;37.864;2023-09-07T16:47:26;100088.47;;;15.26;36.32
53715;BME280;39608;55.630;37.864;2023-09-07T16:52:31;100099.72;;;15.25;36.59
53715;BME280;39608;55.630;37.864;2023-09-07T16:57:39;100084.69;;;15.13;36.88
53715;BME280;39608;55.630;37.864;2023-09-07T17:02:41;100057.50;;;14.85;37.03
53715;BME280;39608;55.630;37.864;2023-09-07T17:07:46;100086.88;;;15.02;37.25
53715;BME280;39608;55.630;37.864;2023-09-07T17:12:51;100089.44;;;14.99;37.11
53715;BME280;39608;55.630;37.864;2023-09-07T17:17:54;100064.53;;;14.78;37.69
53715;BME280;39608;55.630;37.864;2023-09-07T17:22:56;100075.72;;;14.90;37.90
53715;BME280;39608;55.630;37.864;2023-09-07T17:27:59;100074.53;;;14.82;38.21
53715;BME280;39608;55.630;37.864;2023-09-07T17:33:05;100078.25;;;14.86;37.96
53715;BME280;39608;55.630;37.864;2023-09-07T17:38:07;100064.91;;;14.85;38.39
53715;BME280;39608;55.630;37.864;2023-09-07T17:43:10;100077.25;;;14.82;38.31
53715;BME280;39608;55.630;37.864;2023-09-07T17:48:13;100083.34;;;14.79;38.81
53715;BME280;39608;55.630;37.864;2023-09-07T17:53:18;100069.00;;;14.74;38.51
53715;BME280;39608;55.630;37.864;2023-09-07T17:58:21;100075.69;;;14.53;39.75
53715;BME280;39608;55.630;37.864;2023-09-07T18:03:23;100064.66;;;14.59;39.92
53715;BME280;39608;55.630;37.864;2023-09-07T18:08:28;100059.28;;;14.67;39.72
53715;BME280;39608;55.630;37.864;2023-09-07T18:13:32;100070.09;;;14.73;40.12
53715;BME280;39608;55.630;37.864;2023-09-07T18:18:34;100074.16;;;14.75;40.18
53715;BME280;39608;55.630;37.864;2023-09-07T18:23:38;100051.56;;;14.83;39.85
53715;BME280;39608;55.630;37.864;2023-09-07T18:28:49;100052.97;;;15.03;39.77
53715;BME280;39608;55.630;37.864;2023-09-07T18:33:51;100049.38;;;15.17;39.88
53715;BME280;39608;55.630;37.864;2023-09-07T18:38:53;100046.91;;;15.38;39.66
53715;BME280;39608;55.630;37.864;2023-09-07T18:43:57;100053.09;;;15.52;40.04
53715;BME280;39608;55.630;37.864;2023-09-07T18:48:59;100054.53;;;15.50;40.16
53715;BME280;39608;55.630;37.864;2023-09-07T18:54:03;100048.25;;;15.49;40.17
53715;BME280;39608;55.630;37.864;2023-09-07T18:59:07;100035.94;;;15.61;40.20
53715;BME280;39608;55.630;37.864;2023-09-07T19:04:12;100026.09;;;15.60;40.35
53715;BME280;39608;55.630;37.864;2023-09-07T19:09:19;100028.50;;;15.61;40.48
53715;BME280;39608;55.630;37.864;2023-09-07T19:14:23;100025.50;;;15.63;40.52
53715;BME280;39608;55.630;37.864;2023-09-07T19:19:26;100023.88;;;15.62;40.47
53715;BME280;39608;55.630;37.864;2023-09-07T19:24:28;100012.94;;;15.62;40.55
53715;BME280;39608;55.630;37.864;2023-09-07T19:29:36;100020.19;;;15.66;40.77
53715;BME280;39608;55.630;37.864;2023-09-07T19:34:39;100021.28;;;15.56;40.85
53715;BME280;39608;55.630;37.864;2023-09-07T19:39:41;100017.22;;;15.54;41.09
53715;BME280;39608;55.630;37.864;2023-09-07T19:44:45;100012.59;;;15.54;41.30
53715;BME280;39608;55.630;37.864;2023-09-07T19:49:47;99989.22;;;15.39;41.25
53715;BME280;39608;55.630;37.864;2023-09-07T19:54:50;99995.75;;;15.30;41.53
53715;BME280;39608;55.630;37.864;2023-09-07T19:59:53;99993.25;;;15.42;41.38
53715;BME280;39608;55.630;37.864;2023-09-07T20:04:55;99996.75;;;15.34;41.79
53715;BME280;39608;55.630;37.864;2023-09-07T20:09:57;99998.97;;;15.32;42.05
53715;BME280;39608;55.630;37.864;2023-09-07T20:15:01;100001.09;;;15.35;42.43
53715;BME280;39608;55.630;37.864;2023-09-07T20:20:09;99993.31;;;15.19;42.42
53715;BME280;39608;55.630;37.864;2023-09-07T20:25:12;100001.03;;;15.26;42.80
53715;BME280;39608;55.630;37.864;2023-09-07T20:30:16;99980.44;;;15.20;43.89
53715;BME280;39608;55.630;37.864;2023-09-07T20:35:19;99988.41;;;14.76;45.18
53715;BME280;39608;55.630;37.864;2023-09-07T20:40:27;99987.75;;;14.57;46.12
53715;BME280;39608;55.630;37.864;2023-09-07T20:45:30;99976.84;;;14.57;45.95
53715;BME280;39608;55.630;37.864;2023-09-07T20:50:32;99966.13;;;14.46;46.10
53715;BME280;39608;55.630;37.864;2023-09-07T20:55:35;99956.41;;;14.31;46.56
53715;BME280;39608;55.630;37.864;2023-09-07T21:00:44;99923.00;;;14.26;45.88
53715;BME280;39608;55.630;37.864;2023-09-07T21:05:46;99959.16;;;14.54;46.20
53715;BME280;39608;55.630;37.864;2023-09-07T21:10:50;99943.56;;;14.54;46.41
53715;BME280;39608;55.630;37.864;2023-09-07T21:15:54;99955.72;;;14.62;46.64
53715;BME280;39608;55.630;37.864;2023-09-07T21:20:56;99955.41;;;14.64;46.53
53715;BME280;39608;55.630;37.864;2023-09-07T21:25:59;99948.81;;;14.65;47.60
53715;BME280;39608;55.630;37.864;2023-09-07T21:31:02;99927.47;;;14.67;47.21
53715;BME280;39608;55.630;37.864;2023-09-07T21:36:05;99942.34;;;14.61;47.62
53715;BME280;39608;55.630;37.864;2023-09-07T21:41:07;99946.81;;;14.57;46.85
53715;BME280;39608;55.630;37.864;2023-09-07T21:46:10;99901.84;;;14.31;48.34
53715;BME280;39608;55.630;37.864;2023-09-07T21:51:13;99937.84;;;14.42;48.61
53715;BME280;39608;55.630;37.864;2023-09-07T21:56:15;99938.06;;;14.23;49.49
53715;BME280;39608;55.630;37.864;2023-09-07T22:01:19;99928.03;;;14.18;49.59
53715;BME280;39608;55.630;37.864;2023-09-07T22:06:22;99910.31;;;14.07;49.63
53715;BME280;39608;55.630;37.864;2023-09-07T22:11:24;99917.28;;;14.13;49.91
53715;BME280;39608;55.630;37.864;2023-09-07T22:16:28;99918.28;;;14.17;50.34
53715;BME280;39608;55.630;37.864;2023-09-07T22:21:36;99914.13;;;14.20;50.48
53715;BME280;39608;55.630;37.864;2023-09-07T22:26:38;99906.69;;;14.12;50.69
53715;BME280;39608;55.630;37.864;2023-09-07T22:31:42;99909.09;;;14.13;50.89
53715;BME280;39608;55.630;37.864;2023-09-07T22:36:44;99908.59;;;14.11;50.88
53715;BME280;39608;55.630;37.864;2023-09-07T22:41:47;99903.81;;;14.17;50.92
53715;BME280;39608;55.630;37.864;2023-09-07T22:46:50;99904.13;;;14.15;51.12
53715;BME280;39608;55.630;37.864;2023-09-07T22:51:52;99906.84;;;14.15;51.69
53715;BME280;39608;55.630;37.864;2023-09-07T22:56:54;99885.91;;;14.02;51.88
53715;BME280;39608;55.630;37.864;2023-09-07T23:01:58;99883.78;;;13.99;52.56
53715;BME280;39608;55.630;37.864;2023-09-07T23:07:00;99869.75;;;13.92;52.06
53715;BME280;39608;55.630;37.864;2023-09-07T23:12:03;99881.56;;;14.01;51.96
53715;BME280;39608;55.630;37.864;2023-09-07T23:17:06;99875.47;;;14.04;51.95
53715;BME280;39608;55.630;37.864;2023-09-07T23:22:09;99868.41;;;14.03;52.11
53715;BME280;39608;55.630;37.864;2023-09-07T23:27:11;99859.13;;;14.04;52.16
53715;BME280;39608;55.630;37.864;2023-09-07T23:32:15;99860.75;;;14.05;51.57
53715;BME280;39608;55.630;37.864;2023-09-07T23:37:17;99871.66;;;14.05;51.99
53715;BME280;39608;55.630;37.864;2023-09-07T23:42:21;99848.25;;;13.90;52.26
53715;BME280;39608;55.630;37.864;2023-09-07T23:47:41;99858.63;;;14.02;52.42
53715;BME280;39608;55.630;37.864;2023-09-07T23:52:43;99862.28;;;13.97;52.54
53715;BME280;39608;55.630;37.864;2023-09-07T23:57:45;99844.22;;;13.88;52.58
